createdAt,value
2018-09-22T00:00:40.115Z,14.30
2018-09-22T00:03:07.793Z,14.10
2018-09-22T00:05:35.482Z,14.10
2018-09-22T00:08:03.098Z,14.20
2018-09-22T00:10:30.747Z,14.10
2018-09-22T00:12:58.436Z,14.40
2018-09-22T00:15:26.091Z,14.10
2018-09-22T00:17:53.778Z,14.30
2018-09-22T00:20:21.417Z,14.20
2018-09-22T00:22:49.027Z,14.00
2018-09-22T00:25:16.680Z,14.00
2018-09-22T00:27:44.321Z,14.10
2018-09-22T00:30:11.970Z,14.20
2018-09-22T00:32:39.606Z,14.20
2018-09-22T00:35:07.544Z,13.80
2018-09-22T00:37:35.291Z,13.90
2018-09-22T00:40:02.944Z,13.30
2018-09-22T00:42:30.596Z,13.70
2018-09-22T00:44:58.203Z,13.80
2018-09-22T00:47:25.846Z,13.50
2018-09-22T00:49:53.459Z,13.40
2018-09-22T00:52:21.096Z,13.50
2018-09-22T00:54:48.720Z,13.50
2018-09-22T00:57:16.364Z,13.40
2018-09-22T00:59:43.978Z,13.50
2018-09-22T01:02:11.670Z,13.40
2018-09-22T01:04:39.307Z,13.40
2018-09-22T01:07:06.885Z,13.40
2018-09-22T01:09:34.554Z,13.40
2018-09-22T01:12:02.180Z,13.50
2018-09-22T01:14:29.823Z,13.30
2018-09-22T01:16:57.431Z,13.10
2018-09-22T01:19:25.394Z,13.30
2018-09-22T01:21:53.007Z,12.90
2018-09-22T01:24:20.690Z,12.80
2018-09-22T01:26:48.258Z,12.70
2018-09-22T01:29:15.927Z,13.10
2018-09-22T01:31:44.194Z,13.10
2018-09-22T01:34:11.978Z,12.90
2018-09-22T01:36:40.035Z,13.00
2018-09-22T01:39:08.607Z,12.90
2018-09-22T01:41:36.228Z,12.90
2018-09-22T01:44:03.903Z,12.80
2018-09-22T01:46:31.507Z,12.70
2018-09-22T01:48:59.170Z,12.70
2018-09-22T01:51:26.755Z,12.70
2018-09-22T01:53:54.463Z,12.70
2018-09-22T01:56:22.082Z,12.70
2018-09-22T01:58:49.738Z,12.90
2018-09-22T02:01:17.344Z,12.80
2018-09-22T02:03:44.902Z,12.90
2018-09-22T02:06:12.558Z,12.80
2018-09-22T02:08:40.203Z,12.90
2018-09-22T02:11:07.735Z,12.80
2018-09-22T02:13:35.355Z,12.70
2018-09-22T02:16:03.008Z,13.00
2018-09-22T02:18:30.675Z,12.90
2018-09-22T02:20:58.320Z,12.80
2018-09-22T02:23:26.058Z,13.00
2018-09-22T02:25:53.762Z,13.00
2018-09-22T02:28:21.407Z,12.90
2018-09-22T02:30:49.031Z,12.70
2018-09-22T02:33:16.702Z,12.90
2018-09-22T02:35:44.314Z,12.80
2018-09-22T02:38:13.444Z,12.90
2018-09-22T02:40:41.075Z,12.90
2018-09-22T02:43:08.608Z,12.80
2018-09-22T02:45:36.223Z,12.70
2018-09-22T02:48:03.856Z,12.50
2018-09-22T02:50:31.450Z,12.30
2018-09-22T02:52:59.152Z,12.50
2018-09-22T02:55:26.767Z,12.40
2018-09-22T02:57:54.454Z,12.30
2018-09-22T03:00:22.091Z,12.30
2018-09-22T03:02:49.904Z,12.30
2018-09-22T03:05:17.740Z,12.50
2018-09-22T03:07:45.390Z,12.60
2018-09-22T03:10:13.038Z,12.60
2018-09-22T03:12:40.632Z,12.20
2018-09-22T03:15:08.359Z,12.80
2018-09-22T03:17:36.183Z,12.40
2018-09-22T03:20:04.039Z,12.50
2018-09-22T03:22:31.624Z,12.60
2018-09-22T03:24:59.253Z,12.60
2018-09-22T03:27:26.835Z,12.80
2018-09-22T03:29:54.410Z,12.80
2018-09-22T03:32:22.036Z,12.80
2018-09-22T03:34:49.735Z,12.80
2018-09-22T03:37:17.371Z,12.90
2018-09-22T03:39:45.043Z,12.90
2018-09-22T03:42:12.663Z,12.70
2018-09-22T03:44:40.289Z,12.90
2018-09-22T03:47:07.907Z,12.50
2018-09-22T03:49:35.592Z,12.80
2018-09-22T03:52:03.183Z,12.60
2018-09-22T03:54:30.814Z,12.50
2018-09-22T03:56:58.390Z,12.40
2018-09-22T03:59:26.059Z,12.20
2018-09-22T04:01:53.855Z,12.40
2018-09-22T04:04:21.579Z,12.40
2018-09-22T04:06:49.260Z,12.30
2018-09-22T04:09:17.226Z,12.10
2018-09-22T04:11:44.923Z,12.30
2018-09-22T04:14:12.572Z,12.40
2018-09-22T04:16:40.151Z,12.20
2018-09-22T04:19:07.787Z,12.20
2018-09-22T04:21:35.418Z,12.60
2018-09-22T04:24:15.874Z,12.30
2018-09-22T04:26:43.470Z,12.30
2018-09-22T04:29:11.087Z,12.50
2018-09-22T04:31:38.719Z,12.50
2018-09-22T04:34:06.378Z,12.70
2018-09-22T04:36:34.048Z,12.50
2018-09-22T04:39:01.638Z,12.70
2018-09-22T04:41:29.393Z,12.70
2018-09-22T04:43:57.091Z,12.70
2018-09-22T04:46:24.942Z,12.70
2018-09-22T04:48:52.583Z,12.60
2018-09-22T04:51:20.243Z,12.50
2018-09-22T04:53:47.799Z,12.60
2018-09-22T04:56:15.378Z,12.70
2018-09-22T04:58:43.049Z,12.80
2018-09-22T05:01:10.672Z,12.70
2018-09-22T05:03:38.303Z,12.80
2018-09-22T05:06:06.043Z,12.60
2018-09-22T05:08:33.627Z,12.90
2018-09-22T05:11:01.335Z,12.60
2018-09-22T05:13:28.951Z,12.80
2018-09-22T05:15:56.650Z,12.70
2018-09-22T05:18:24.331Z,12.60
2018-09-22T05:20:51.975Z,12.40
2018-09-22T05:23:19.499Z,12.50
2018-09-22T05:25:47.123Z,12.30
2018-09-22T05:28:14.753Z,12.30
2018-09-22T05:30:42.494Z,12.50
2018-09-22T05:33:10.116Z,12.50
2018-09-22T05:35:37.753Z,12.50
2018-09-22T05:38:05.355Z,12.80
2018-09-22T05:40:32.979Z,12.60
2018-09-22T05:43:00.621Z,12.50
2018-09-22T05:45:28.222Z,12.70
2018-09-22T05:47:55.914Z,12.80
2018-09-22T05:50:23.634Z,12.70
2018-09-22T05:52:51.282Z,12.40
2018-09-22T05:55:18.955Z,12.80
2018-09-22T05:57:46.531Z,12.70
2018-09-22T06:00:14.138Z,12.50
2018-09-22T06:02:41.778Z,12.50
2018-09-22T06:05:09.455Z,12.50
2018-09-22T06:07:37.127Z,12.60
2018-09-22T06:10:04.778Z,12.50
2018-09-22T06:12:32.421Z,12.90
2018-09-22T06:15:00.039Z,12.70
2018-09-22T06:17:27.699Z,12.60
2018-09-22T06:19:55.284Z,12.90
2018-09-22T06:22:22.907Z,13.00
2018-09-22T06:24:50.543Z,12.80
2018-09-22T06:27:18.196Z,13.00
2018-09-22T06:29:45.988Z,13.00
2018-09-22T06:32:13.670Z,12.90
2018-09-22T06:34:41.291Z,13.20
2018-09-22T06:37:08.887Z,13.00
2018-09-22T06:39:36.557Z,13.50
2018-09-22T06:42:04.247Z,13.30
2018-09-22T06:44:31.799Z,13.40
2018-09-22T06:46:59.414Z,13.30
2018-09-22T06:49:26.951Z,13.40
2018-09-22T06:51:54.547Z,13.60
2018-09-22T06:54:22.164Z,13.80
2018-09-22T06:56:49.774Z,13.60
2018-09-22T06:59:17.390Z,13.60
2018-09-22T07:01:45.063Z,13.80
2018-09-22T07:04:12.746Z,14.30
2018-09-22T07:06:40.322Z,14.20
2018-09-22T07:09:08.105Z,14.40
2018-09-22T07:11:35.713Z,14.70
2018-09-22T07:14:03.378Z,14.50
2018-09-22T07:16:31.063Z,14.70
2018-09-22T07:18:58.712Z,14.60
2018-09-22T07:21:31.742Z,14.50
2018-09-22T07:23:59.293Z,14.30
2018-09-22T07:26:27.012Z,14.90
2018-09-22T07:28:54.665Z,15.10
2018-09-22T07:31:22.390Z,15.40
2018-09-22T07:33:49.964Z,15.50
2018-09-22T07:36:17.605Z,15.40
2018-09-22T07:38:45.325Z,15.40
2018-09-22T07:41:12.995Z,15.40
2018-09-22T07:43:40.603Z,15.60
2018-09-22T07:46:08.460Z,15.70
2018-09-22T07:48:36.166Z,16.00
2018-09-22T07:51:04.057Z,16.50
2018-09-22T07:53:31.783Z,16.60
2018-09-22T07:55:59.429Z,17.60
2018-09-22T07:58:27.100Z,17.80
2018-09-22T08:00:54.769Z,18.10
2018-09-22T08:03:22.566Z,18.60
2018-09-22T08:05:50.279Z,18.70
2018-09-22T08:08:18.369Z,18.00
2018-09-22T08:10:45.962Z,17.30
2018-09-22T08:13:13.591Z,16.50
2018-09-22T08:15:41.298Z,16.30
2018-09-22T08:18:08.961Z,16.10
2018-09-22T08:20:36.562Z,16.50
2018-09-22T08:23:04.269Z,16.70
2018-09-22T08:25:31.899Z,16.80
2018-09-22T08:27:59.650Z,17.10
2018-09-22T08:30:27.307Z,17.10
2018-09-22T08:32:55.070Z,17.20
2018-09-22T08:35:22.763Z,17.20
2018-09-22T08:37:50.475Z,17.30
2018-09-22T08:40:18.143Z,17.40
2018-09-22T08:42:45.755Z,18.30
2018-09-22T08:45:13.431Z,18.60
2018-09-22T08:47:41.162Z,19.10
2018-09-22T08:50:08.927Z,19.70
2018-09-22T08:52:36.572Z,20.00
2018-09-22T08:55:04.279Z,20.10
2018-09-22T08:57:34.005Z,19.90
2018-09-22T09:00:01.674Z,20.00
2018-09-22T09:02:29.455Z,19.80
2018-09-22T09:04:57.102Z,20.20
2018-09-22T09:07:24.721Z,20.10
2018-09-22T09:09:52.307Z,20.30
2018-09-22T09:12:20.043Z,20.30
2018-09-22T09:14:47.772Z,20.60
2018-09-22T09:17:15.480Z,20.70
2018-09-22T09:19:43.152Z,20.30
2018-09-22T09:22:10.719Z,19.90
2018-09-22T09:24:38.418Z,20.20
2018-09-22T09:27:06.205Z,20.20
2018-09-22T09:29:33.862Z,19.40
2018-09-22T09:32:01.505Z,18.90
2018-09-22T09:34:29.151Z,19.20
2018-09-22T09:36:56.727Z,19.30
2018-09-22T09:39:24.367Z,20.10
2018-09-22T09:41:52.196Z,20.40
2018-09-22T09:44:19.811Z,20.50
2018-09-22T09:46:47.403Z,20.80
2018-09-22T09:49:15.046Z,20.60
2018-09-22T09:51:42.683Z,20.70
2018-09-22T09:54:10.343Z,20.50
2018-09-22T09:56:38.013Z,20.20
2018-09-22T09:59:05.779Z,20.40
2018-09-22T10:01:33.455Z,20.20
2018-09-22T10:04:01.183Z,20.10
2018-09-22T10:06:28.794Z,20.60
2018-09-22T10:08:56.451Z,20.30
2018-09-22T10:11:24.203Z,20.20
2018-09-22T10:13:51.873Z,20.10
2018-09-22T10:16:19.610Z,20.40
2018-09-22T10:18:47.231Z,20.60
2018-09-22T10:21:14.791Z,21.10
2018-09-22T10:23:42.603Z,21.40
2018-09-22T10:26:10.210Z,20.80
2018-09-22T10:28:37.847Z,20.80
2018-09-22T10:31:05.669Z,20.80
2018-09-22T10:33:33.302Z,20.60
2018-09-22T10:36:01.020Z,20.80
2018-09-22T10:38:28.690Z,21.40
2018-09-22T10:40:56.998Z,21.10
2018-09-22T10:43:24.715Z,20.90
2018-09-22T10:45:52.364Z,20.80
2018-09-22T10:48:20.037Z,20.80
2018-09-22T10:50:47.628Z,21.00
2018-09-22T10:53:15.364Z,20.70
2018-09-22T10:55:42.998Z,20.70
2018-09-22T10:58:10.706Z,20.50
2018-09-22T11:00:38.390Z,20.00
2018-09-22T11:03:06.105Z,19.90
2018-09-22T11:05:34.076Z,20.10
2018-09-22T11:08:01.684Z,20.20
2018-09-22T11:10:29.402Z,20.50
2018-09-22T11:12:57.064Z,20.80
2018-09-22T11:15:24.675Z,20.60
2018-09-22T11:17:52.346Z,20.60
2018-09-22T11:20:19.957Z,20.60
2018-09-22T11:22:47.567Z,20.30
2018-09-22T11:25:15.299Z,20.40
2018-09-22T11:27:43.212Z,20.40
2018-09-22T11:30:10.934Z,20.30
2018-09-22T11:32:38.716Z,20.60
2018-09-22T11:35:06.447Z,20.40
2018-09-22T11:37:34.139Z,20.40
2018-09-22T11:40:01.881Z,20.60
2018-09-22T11:42:29.703Z,20.60
2018-09-22T11:44:57.467Z,21.10
2018-09-22T11:47:25.075Z,20.70
2018-09-22T11:49:52.691Z,20.20
2018-09-22T11:52:20.372Z,19.70
2018-09-22T11:54:48.218Z,19.90
2018-09-22T11:57:16.767Z,20.30
2018-09-22T11:59:44.611Z,20.20
2018-09-22T12:02:12.318Z,20.40
2018-09-22T12:04:40.165Z,20.40
2018-09-22T12:07:08.141Z,20.80
2018-09-22T12:09:35.875Z,21.10
2018-09-22T12:12:03.618Z,21.10
2018-09-22T12:14:31.467Z,21.40
2018-09-22T12:16:59.178Z,21.40
2018-09-22T12:19:26.959Z,20.90
2018-09-22T12:21:54.637Z,20.60
2018-09-22T12:24:22.476Z,20.70
2018-09-22T12:26:50.210Z,20.80
2018-09-22T12:29:17.907Z,21.00
2018-09-22T12:31:45.685Z,21.30
2018-09-22T12:34:13.347Z,21.30
2018-09-22T12:36:41.032Z,21.10
2018-09-22T12:39:09.874Z,20.80
2018-09-22T12:41:37.863Z,21.00
2018-09-22T12:44:05.956Z,21.00
2018-09-22T12:46:33.579Z,20.80
2018-09-22T12:49:01.580Z,20.90
2018-09-22T12:51:29.366Z,21.30
2018-09-22T12:53:57.077Z,21.20
2018-09-22T12:56:24.798Z,20.80
2018-09-22T12:58:52.534Z,20.90
2018-09-22T13:01:20.255Z,20.50
